sensor_id;sensor_type;location;lat;lon;timestamp;P1;durP1;ratioP1;P2;durP2;ratioP2
46637;SDS011;32365;46.938;7.390;2023-02-12T06:45:58;9.73;;;1.88;;
46637;SDS011;32365;46.938;7.390;2023-02-12T06:48:26;1.42;;;1.42;;
46637;SDS011;32365;46.938;7.390;2023-02-12T06:50:53;1.33;;;1.33;;
46637;SDS011;32365;46.938;7.390;2023-02-12T06:53:20;5.28;;;3.20;;
46637;SDS011;32365;46.938;7.390;2023-02-12T06:55:46;2.05;;;1.98;;
46637;SDS011;32365;46.938;7.390;2023-02-12T06:58:13;1.77;;;1.67;;
46637;SDS011;32365;46.938;7.390;2023-02-12T07:00:39;1.60;;;1.58;;
46637;SDS011;32365;46.938;7.390;2023-02-12T07:03:07;3.40;;;2.53;;
46637;SDS011;32365;46.938;7.390;2023-02-12T07:05:37;1.63;;;1.52;;
46637;SDS011;32365;46.938;7.390;2023-02-12T07:08:04;1.02;;;1.02;;
46637;SDS011;32365;46.938;7.390;2023-02-12T07:10:31;1.42;;;1.42;;
46637;SDS011;32365;46.938;7.390;2023-02-12T07:12:57;0.77;;;0.77;;
46637;SDS011;32365;46.938;7.390;2023-02-12T07:15:24;2.75;;;2.63;;
46637;SDS011;32365;46.938;7.390;2023-02-12T07:17:51;2.63;;;2.42;;
46637;SDS011;32365;46.938;7.390;2023-02-12T07:20:19;1.42;;;1.42;;
46637;SDS011;32365;46.938;7.390;2023-02-12T07:22:45;2.95;;;1.85;;
46637;SDS011;32365;46.938;7.390;2023-02-12T07:25:12;1.55;;;1.55;;
46637;SDS011;32365;46.938;7.390;2023-02-12T07:27:38;1.52;;;1.42;;
46637;SDS011;32365;46.938;7.390;2023-02-12T07:30:06;9.57;;;3.33;;
46637;SDS011;32365;46.938;7.390;2023-02-12T07:32:33;1.30;;;1.30;;
46637;SDS011;32365;46.938;7.390;2023-02-12T07:35:00;3.15;;;2.75;;
46637;SDS011;32365;46.938;7.390;2023-02-12T07:37:28;0.70;;;0.70;;
46637;SDS011;32365;46.938;7.390;2023-02-12T07:39:54;1.27;;;1.27;;
46637;SDS011;32365;46.938;7.390;2023-02-12T07:42:21;1.60;;;1.60;;
46637;SDS011;32365;46.938;7.390;2023-02-12T07:44:48;1.88;;;1.88;;
46637;SDS011;32365;46.938;7.390;2023-02-12T07:47:14;1.33;;;1.23;;
46637;SDS011;32365;46.938;7.390;2023-02-12T07:49:41;2.30;;;1.52;;
46637;SDS011;32365;46.938;7.390;2023-02-12T07:52:08;2.65;;;2.55;;
46637;SDS011;32365;46.938;7.390;2023-02-12T07:54:36;2.33;;;1.45;;
46637;SDS011;32365;46.938;7.390;2023-02-12T07:57:03;1.25;;;1.23;;
46637;SDS011;32365;46.938;7.390;2023-02-12T07:59:29;2.00;;;1.90;;
46637;SDS011;32365;46.938;7.390;2023-02-12T08:01:56;1.73;;;1.73;;
46637;SDS011;32365;46.938;7.390;2023-02-12T08:04:25;1.58;;;1.50;;
46637;SDS011;32365;46.938;7.390;2023-02-12T08:06:52;3.33;;;2.95;;
46637;SDS011;32365;46.938;7.390;2023-02-12T08:09:21;1.05;;;1.05;;
46637;SDS011;32365;46.938;7.390;2023-02-12T08:11:50;3.63;;;3.20;;
46637;SDS011;32365;46.938;7.390;2023-02-12T08:14:18;2.50;;;2.40;;
46637;SDS011;32365;46.938;7.390;2023-02-12T08:16:46;5.45;;;3.17;;
46637;SDS011;32365;46.938;7.390;2023-02-12T08:19:13;2.92;;;2.75;;
46637;SDS011;32365;46.938;7.390;2023-02-12T08:21:40;2.95;;;2.80;;
46637;SDS011;32365;46.938;7.390;2023-02-12T08:24:08;3.30;;;2.95;;
46637;SDS011;32365;46.938;7.390;2023-02-12T08:26:36;5.35;;;4.65;;
46637;SDS011;32365;46.938;7.390;2023-02-12T08:29:06;4.57;;;4.28;;
46637;SDS011;32365;46.938;7.390;2023-02-12T08:31:34;14.43;;;4.15;;
46637;SDS011;32365;46.938;7.390;2023-02-12T08:34:02;4.55;;;3.80;;
46637;SDS011;32365;46.938;7.390;2023-02-12T08:36:30;3.55;;;2.92;;
46637;SDS011;32365;46.938;7.390;2023-02-12T08:39:01;4.65;;;4.35;;
46637;SDS011;32365;46.938;7.390;2023-02-12T08:41:28;3.78;;;3.58;;
46637;SDS011;32365;46.938;7.390;2023-02-12T08:43:56;6.07;;;4.15;;
46637;SDS011;32365;46.938;7.390;2023-02-12T08:46:26;5.15;;;4.60;;
46637;SDS011;32365;46.938;7.390;2023-02-12T08:48:55;3.65;;;3.40;;
46637;SDS011;32365;46.938;7.390;2023-02-12T08:51:23;3.85;;;3.63;;
46637;SDS011;32365;46.938;7.390;2023-02-12T08:53:52;3.63;;;2.78;;
46637;SDS011;32365;46.938;7.390;2023-02-12T08:56:19;6.07;;;2.65;;
46637;SDS011;32365;46.938;7.390;2023-02-12T08:58:47;4.10;;;2.85;;
46637;SDS011;32365;46.938;7.390;2023-02-12T09:01:14;2.47;;;2.38;;
46637;SDS011;32365;46.938;7.390;2023-02-12T09:03:44;2.00;;;1.90;;
46637;SDS011;32365;46.938;7.390;2023-02-12T09:06:11;3.80;;;3.38;;
46637;SDS011;32365;46.938;7.390;2023-02-12T09:08:39;8.00;;;4.75;;
46637;SDS011;32365;46.938;7.390;2023-02-12T09:11:06;7.28;;;4.53;;
46637;SDS011;32365;46.938;7.390;2023-02-12T09:13:34;8.82;;;3.10;;
46637;SDS011;32365;46.938;7.390;2023-02-12T09:16:02;4.43;;;4.13;;
46637;SDS011;32365;46.938;7.390;2023-02-12T09:18:30;8.00;;;5.03;;
46637;SDS011;32365;46.938;7.390;2023-02-12T09:21:00;6.07;;;4.63;;
46637;SDS011;32365;46.938;7.390;2023-02-12T09:23:28;7.65;;;5.22;;
46637;SDS011;32365;46.938;7.390;2023-02-12T09:25:55;2.35;;;2.20;;
46637;SDS011;32365;46.938;7.390;2023-02-12T09:28:21;4.40;;;4.00;;
46637;SDS011;32365;46.938;7.390;2023-02-12T09:30:48;8.18;;;5.43;;
46637;SDS011;32365;46.938;7.390;2023-02-12T09:33:15;4.95;;;4.25;;
46637;SDS011;32365;46.938;7.390;2023-02-12T09:35:42;4.97;;;4.55;;
46637;SDS011;32365;46.938;7.390;2023-02-12T09:38:10;8.52;;;4.88;;
46637;SDS011;32365;46.938;7.390;2023-02-12T09:40:38;4.65;;;4.25;;
46637;SDS011;32365;46.938;7.390;2023-02-12T09:43:17;6.82;;;5.65;;
46637;SDS011;32365;46.938;7.390;2023-02-12T09:45:52;20.27;;;5.00;;
46637;SDS011;32365;46.938;7.390;2023-02-12T09:48:32;8.75;;;6.80;;
46637;SDS011;32365;46.938;7.390;2023-02-12T09:51:06;4.85;;;4.22;;
46637;SDS011;32365;46.938;7.390;2023-02-12T09:53:37;3.97;;;3.58;;
46637;SDS011;32365;46.938;7.390;2023-02-12T09:56:11;8.93;;;3.80;;
46637;SDS011;32365;46.938;7.390;2023-02-12T09:58:40;7.57;;;5.50;;
46637;SDS011;32365;46.938;7.390;2023-02-12T10:01:11;4.68;;;4.20;;
46637;SDS011;32365;46.938;7.390;2023-02-12T10:03:40;11.10;;;4.88;;
46637;SDS011;32365;46.938;7.390;2023-02-12T10:06:10;8.55;;;5.18;;
46637;SDS011;32365;46.938;7.390;2023-02-12T10:08:45;5.68;;;4.55;;
46637;SDS011;32365;46.938;7.390;2023-02-12T10:11:43;6.10;;;4.97;;
46637;SDS011;32365;46.938;7.390;2023-02-12T10:17:22;7.07;;;5.40;;
46637;SDS011;32365;46.938;7.390;2023-02-12T10:20:00;10.63;;;5.93;;
46637;SDS011;32365;46.938;7.390;2023-02-12T10:22:59;10.25;;;4.72;;
46637;SDS011;32365;46.938;7.390;2023-02-12T10:25:40;7.47;;;5.90;;
46637;SDS011;32365;46.938;7.390;2023-02-12T10:28:13;7.05;;;5.03;;
46637;SDS011;32365;46.938;7.390;2023-02-12T10:30:43;6.93;;;5.40;;
46637;SDS011;32365;46.938;7.390;2023-02-12T10:33:16;7.28;;;5.68;;
46637;SDS011;32365;46.938;7.390;2023-02-12T10:35:49;7.57;;;5.22;;
46637;SDS011;32365;46.938;7.390;2023-02-12T10:38:19;10.55;;;4.63;;
46637;SDS011;32365;46.938;7.390;2023-02-12T10:40:48;8.85;;;5.03;;
46637;SDS011;32365;46.938;7.390;2023-02-12T10:43:15;6.93;;;5.05;;
46637;SDS011;32365;46.938;7.390;2023-02-12T10:45:42;7.32;;;5.32;;
46637;SDS011;32365;46.938;7.390;2023-02-12T10:48:10;8.38;;;4.70;;
46637;SDS011;32365;46.938;7.390;2023-02-12T10:50:47;7.43;;;5.28;;
46637;SDS011;32365;46.938;7.390;2023-02-12T10:56:10;11.35;;;6.95;;
46637;SDS011;32365;46.938;7.390;2023-02-12T10:58:41;9.80;;;5.70;;
46637;SDS011;32365;46.938;7.390;2023-02-12T11:01:16;6.75;;;5.30;;
46637;SDS011;32365;46.938;7.390;2023-02-12T11:06:14;4.90;;;4.45;;
46637;SDS011;32365;46.938;7.390;2023-02-12T11:08:42;8.82;;;4.32;;
46637;SDS011;32365;46.938;7.390;2023-02-12T11:11:11;6.10;;;5.18;;
46637;SDS011;32365;46.938;7.390;2023-02-12T11:13:43;5.68;;;4.55;;
46637;SDS011;32365;46.938;7.390;2023-02-12T11:16:12;12.55;;;5.30;;
46637;SDS011;32365;46.938;7.390;2023-02-12T11:18:41;11.60;;;4.93;;
46637;SDS011;32365;46.938;7.390;2023-02-12T11:21:08;8.77;;;6.28;;
46637;SDS011;32365;46.938;7.390;2023-02-12T11:23:36;7.82;;;4.55;;
46637;SDS011;32365;46.938;7.390;2023-02-12T11:26:04;9.13;;;4.93;;
46637;SDS011;32365;46.938;7.390;2023-02-12T11:28:34;7.03;;;4.80;;
46637;SDS011;32365;46.938;7.390;2023-02-12T11:31:03;7.05;;;4.78;;
46637;SDS011;32365;46.938;7.390;2023-02-12T11:33:45;9.10;;;5.63;;
46637;SDS011;32365;46.938;7.390;2023-02-12T11:36:12;6.43;;;4.68;;
46637;SDS011;32365;46.938;7.390;2023-02-12T11:38:46;11.80;;;4.38;;
46637;SDS011;32365;46.938;7.390;2023-02-12T11:41:21;11.00;;;4.82;;
46637;SDS011;32365;46.938;7.390;2023-02-12T11:43:53;5.00;;;4.55;;
46637;SDS011;32365;46.938;7.390;2023-02-12T11:46:21;7.93;;;4.35;;
46637;SDS011;32365;46.938;7.390;2023-02-12T11:48:50;10.35;;;3.97;;
46637;SDS011;32365;46.938;7.390;2023-02-12T11:51:19;6.72;;;5.55;;
46637;SDS011;32365;46.938;7.390;2023-02-12T11:53:51;5.72;;;4.80;;
46637;SDS011;32365;46.938;7.390;2023-02-12T11:56:19;8.32;;;4.90;;
46637;SDS011;32365;46.938;7.390;2023-02-12T11:58:46;5.53;;;4.80;;
46637;SDS011;32365;46.938;7.390;2023-02-12T12:01:17;7.93;;;5.47;;
46637;SDS011;32365;46.938;7.390;2023-02-12T12:03:52;14.00;;;5.82;;
46637;SDS011;32365;46.938;7.390;2023-02-12T12:06:26;11.05;;;4.95;;
46637;SDS011;32365;46.938;7.390;2023-02-12T12:09:00;12.63;;;4.88;;
46637;SDS011;32365;46.938;7.390;2023-02-12T12:11:33;7.53;;;4.13;;
46637;SDS011;32365;46.938;7.390;2023-02-12T12:14:07;5.85;;;5.18;;
46637;SDS011;32365;46.938;7.390;2023-02-12T12:16:42;6.63;;;5.97;;
46637;SDS011;32365;46.938;7.390;2023-02-12T12:19:36;6.47;;;4.65;;
46637;SDS011;32365;46.938;7.390;2023-02-12T12:22:24;10.93;;;6.60;;
46637;SDS011;32365;46.938;7.390;2023-02-12T12:24:56;6.40;;;4.35;;
46637;SDS011;32365;46.938;7.390;2023-02-12T12:27:26;9.38;;;5.80;;
46637;SDS011;32365;46.938;7.390;2023-02-12T12:30:30;4.25;;;3.85;;
46637;SDS011;32365;46.938;7.390;2023-02-12T12:33:08;4.43;;;4.05;;
46637;SDS011;32365;46.938;7.390;2023-02-12T12:35:42;10.07;;;5.38;;
46637;SDS011;32365;46.938;7.390;2023-02-12T12:38:20;8.43;;;6.30;;
46637;SDS011;32365;46.938;7.390;2023-02-12T12:40:56;6.53;;;4.22;;
46637;SDS011;32365;46.938;7.390;2023-02-12T12:43:31;8.70;;;5.70;;
46637;SDS011;32365;46.938;7.390;2023-02-12T12:46:09;11.15;;;5.32;;
46637;SDS011;32365;46.938;7.390;2023-02-12T12:49:01;14.68;;;6.38;;
46637;SDS011;32365;46.938;7.390;2023-02-12T12:51:44;10.48;;;5.07;;
46637;SDS011;32365;46.938;7.390;2023-02-12T12:57:04;4.80;;;4.03;;
46637;SDS011;32365;46.938;7.390;2023-02-12T12:59:46;7.50;;;5.15;;
46637;SDS011;32365;46.938;7.390;2023-02-12T13:02:34;11.05;;;7.03;;
46637;SDS011;32365;46.938;7.390;2023-02-12T13:05:41;11.43;;;4.97;;
46637;SDS011;32365;46.938;7.390;2023-02-12T13:11:34;6.45;;;5.18;;
46637;SDS011;32365;46.938;7.390;2023-02-12T13:14:11;6.90;;;5.45;;
46637;SDS011;32365;46.938;7.390;2023-02-12T13:16:50;8.65;;;6.28;;
46637;SDS011;32365;46.938;7.390;2023-02-12T13:19:27;7.55;;;4.53;;
46637;SDS011;32365;46.938;7.390;2023-02-12T13:22:04;6.57;;;4.20;;
46637;SDS011;32365;46.938;7.390;2023-02-12T13:24:37;9.38;;;5.55;;
46637;SDS011;32365;46.938;7.390;2023-02-12T13:27:11;9.90;;;6.10;;
46637;SDS011;32365;46.938;7.390;2023-02-12T13:29:42;7.13;;;4.55;;
46637;SDS011;32365;46.938;7.390;2023-02-12T13:32:12;10.23;;;5.45;;
46637;SDS011;32365;46.938;7.390;2023-02-12T13:34:41;11.13;;;6.37;;
46637;SDS011;32365;46.938;7.390;2023-02-12T13:37:12;10.07;;;4.50;;
46637;SDS011;32365;46.938;7.390;2023-02-12T13:39:44;7.18;;;5.38;;
46637;SDS011;32365;46.938;7.390;2023-02-12T13:42:17;10.75;;;6.97;;
46637;SDS011;32365;46.938;7.390;2023-02-12T13:44:56;5.70;;;4.93;;
46637;SDS011;32365;46.938;7.390;2023-02-12T13:47:28;8.40;;;4.45;;
46637;SDS011;32365;46.938;7.390;2023-02-12T13:50:00;6.50;;;4.72;;
46637;SDS011;32365;46.938;7.390;2023-02-12T13:52:38;3.33;;;3.05;;
46637;SDS011;32365;46.938;7.390;2023-02-12T13:55:19;10.50;;;6.07;;
46637;SDS011;32365;46.938;7.390;2023-02-12T14:00:57;4.05;;;3.67;;
46637;SDS011;32365;46.938;7.390;2023-02-12T14:03:25;5.30;;;4.28;;
46637;SDS011;32365;46.938;7.390;2023-02-12T14:06:07;6.70;;;4.80;;
46637;SDS011;32365;46.938;7.390;2023-02-12T14:08:38;4.90;;;4.47;;
46637;SDS011;32365;46.938;7.390;2023-02-12T14:11:07;6.28;;;4.15;;
46637;SDS011;32365;46.938;7.390;2023-02-12T14:13:43;6.35;;;5.20;;
46637;SDS011;32365;46.938;7.390;2023-02-12T14:16:20;5.47;;;4.88;;
46637;SDS011;32365;46.938;7.390;2023-02-12T14:22:09;6.65;;;4.85;;
46637;SDS011;32365;46.938;7.390;2023-02-12T14:27:28;10.50;;;4.30;;
46637;SDS011;32365;46.938;7.390;2023-02-12T14:41:27;7.82;;;4.63;;
46637;SDS011;32365;46.938;7.390;2023-02-12T14:50:14;3.05;;;2.83;;
46637;SDS011;32365;46.938;7.390;2023-02-12T14:52:47;4.82;;;4.47;;
46637;SDS011;32365;46.938;7.390;2023-02-12T14:55:19;11.20;;;5.50;;
46637;SDS011;32365;46.938;7.390;2023-02-12T14:57:51;3.85;;;3.30;;
46637;SDS011;32365;46.938;7.390;2023-02-12T15:00:24;4.57;;;4.15;;
46637;SDS011;32365;46.938;7.390;2023-02-12T15:02:56;4.80;;;4.38;;
46637;SDS011;32365;46.938;7.390;2023-02-12T15:05:28;4.20;;;3.97;;
46637;SDS011;32365;46.938;7.390;2023-02-12T15:07:58;4.80;;;4.43;;
46637;SDS011;32365;46.938;7.390;2023-02-12T15:10:28;3.90;;;3.70;;
46637;SDS011;32365;46.938;7.390;2023-02-12T15:13:04;4.70;;;3.97;;
46637;SDS011;32365;46.938;7.390;2023-02-12T15:15:41;6.28;;;5.70;;
46637;SDS011;32365;46.938;7.390;2023-02-12T15:18:13;5.57;;;4.07;;
46637;SDS011;32365;46.938;7.390;2023-02-12T15:20:49;4.63;;;4.20;;
46637;SDS011;32365;46.938;7.390;2023-02-12T15:23:33;3.53;;;3.13;;
46637;SDS011;32365;46.938;7.390;2023-02-12T15:26:04;5.63;;;4.57;;
46637;SDS011;32365;46.938;7.390;2023-02-12T15:28:37;4.25;;;3.60;;
46637;SDS011;32365;46.938;7.390;2023-02-12T15:31:05;4.10;;;3.80;;
46637;SDS011;32365;46.938;7.390;2023-02-12T15:33:35;5.10;;;4.65;;
46637;SDS011;32365;46.938;7.390;2023-02-12T15:36:06;3.58;;;3.28;;
46637;SDS011;32365;46.938;7.390;2023-02-12T15:38:35;4.43;;;3.75;;
46637;SDS011;32365;46.938;7.390;2023-02-12T15:41:02;4.20;;;3.92;;
46637;SDS011;32365;46.938;7.390;2023-02-12T15:43:31;3.40;;;3.13;;
46637;SDS011;32365;46.938;7.390;2023-02-12T15:46:01;4.78;;;3.10;;
46637;SDS011;32365;46.938;7.390;2023-02-12T15:48:31;6.67;;;5.20;;
46637;SDS011;32365;46.938;7.390;2023-02-12T15:51:01;15.50;;;4.53;;
46637;SDS011;32365;46.938;7.390;2023-02-12T15:53:33;5.35;;;4.93;;
46637;SDS011;32365;46.938;7.390;2023-02-12T15:56:00;3.40;;;2.65;;
46637;SDS011;32365;46.938;7.390;2023-02-12T15:58:29;2.50;;;2.35;;
46637;SDS011;32365;46.938;7.390;2023-02-12T16:01:03;2.80;;;2.60;;
46637;SDS011;32365;46.938;7.390;2023-02-12T16:03:32;3.78;;;3.42;;
46637;SDS011;32365;46.938;7.390;2023-02-12T16:06:01;4.13;;;3.83;;
46637;SDS011;32365;46.938;7.390;2023-02-12T16:08:30;3.30;;;3.17;;
46637;SDS011;32365;46.938;7.390;2023-02-12T16:10:59;15.38;;;3.00;;
46637;SDS011;32365;46.938;7.390;2023-02-12T16:13:37;5.90;;;5.50;;
46637;SDS011;32365;46.938;7.390;2023-02-12T16:16:17;5.93;;;4.20;;
46637;SDS011;32365;46.938;7.390;2023-02-12T16:19:01;2.58;;;2.47;;
46637;SDS011;32365;46.938;7.390;2023-02-12T16:21:30;2.25;;;2.15;;
46637;SDS011;32365;46.938;7.390;2023-02-12T16:24:00;4.13;;;3.83;;
46637;SDS011;32365;46.938;7.390;2023-02-12T16:26:27;4.60;;;4.22;;
46637;SDS011;32365;46.938;7.390;2023-02-12T16:28:54;3.10;;;2.95;;
46637;SDS011;32365;46.938;7.390;2023-02-12T16:31:24;4.75;;;4.50;;
46637;SDS011;32365;46.938;7.390;2023-02-12T16:33:52;7.30;;;5.18;;
46637;SDS011;32365;46.938;7.390;2023-02-12T16:36:26;3.95;;;3.67;;
46637;SDS011;32365;46.938;7.390;2023-02-12T16:38:55;4.90;;;4.50;;
46637;SDS011;32365;46.938;7.390;2023-02-12T16:41:24;4.65;;;4.35;;
46637;SDS011;32365;46.938;7.390;2023-02-12T16:46:57;6.28;;;4.13;;
46637;SDS011;32365;46.938;7.390;2023-02-12T16:49:25;4.05;;;3.75;;
46637;SDS011;32365;46.938;7.390;2023-02-12T16:51:52;5.20;;;4.10;;
46637;SDS011;32365;46.938;7.390;2023-02-12T16:54:39;2.67;;;2.13;;
46637;SDS011;32365;46.938;7.390;2023-02-12T16:57:07;3.10;;;2.95;;
46637;SDS011;32365;46.938;7.390;2023-02-12T16:59:36;4.30;;;3.95;;
46637;SDS011;32365;46.938;7.390;2023-02-12T17:02:08;15.45;;;3.53;;
46637;SDS011;32365;46.938;7.390;2023-02-12T17:04:36;5.03;;;4.07;;
46637;SDS011;32365;46.938;7.390;2023-02-12T17:07:04;3.28;;;3.08;;
46637;SDS011;32365;46.938;7.390;2023-02-12T17:09:41;3.00;;;2.88;;
46637;SDS011;32365;46.938;7.390;2023-02-12T17:12:08;4.85;;;4.45;;
46637;SDS011;32365;46.938;7.390;2023-02-12T17:14:34;3.65;;;3.35;;
46637;SDS011;32365;46.938;7.390;2023-02-12T17:17:01;3.05;;;2.88;;
46637;SDS011;32365;46.938;7.390;2023-02-12T17:19:29;4.32;;;3.92;;
46637;SDS011;32365;46.938;7.390;2023-02-12T17:21:55;2.08;;;1.98;;
46637;SDS011;32365;46.938;7.390;2023-02-12T17:24:23;6.03;;;3.95;;
46637;SDS011;32365;46.938;7.390;2023-02-12T17:26:51;6.20;;;4.53;;
46637;SDS011;32365;46.938;7.390;2023-02-12T17:29:18;1.80;;;1.75;;
46637;SDS011;32365;46.938;7.390;2023-02-12T17:31:46;2.78;;;2.50;;
46637;SDS011;32365;46.938;7.390;2023-02-12T17:34:13;2.45;;;2.35;;
46637;SDS011;32365;46.938;7.390;2023-02-12T17:36:42;2.78;;;2.67;;
46637;SDS011;32365;46.938;7.390;2023-02-12T17:39:09;5.32;;;4.93;;
46637;SDS011;32365;46.938;7.390;2023-02-12T17:41:37;7.18;;;4.15;;
46637;SDS011;32365;46.938;7.390;2023-02-12T17:44:04;2.35;;;2.20;;
46637;SDS011;32365;46.938;7.390;2023-02-12T17:46:31;2.72;;;2.63;;
46637;SDS011;32365;46.938;7.390;2023-02-12T17:48:58;3.20;;;3.00;;
46637;SDS011;32365;46.938;7.390;2023-02-12T17:51:25;4.60;;;3.42;;
46637;SDS011;32365;46.938;7.390;2023-02-12T17:53:52;1.85;;;1.75;;
46637;SDS011;32365;46.938;7.390;2023-02-12T17:56:19;4.13;;;3.92;;
46637;SDS011;32365;46.938;7.390;2023-02-12T17:58:49;5.20;;;4.75;;
46637;SDS011;32365;46.938;7.390;2023-02-12T18:01:17;3.17;;;2.97;;
46637;SDS011;32365;46.938;7.390;2023-02-12T18:03:45;2.80;;;2.50;;
46637;SDS011;32365;46.938;7.390;2023-02-12T18:06:12;4.43;;;3.42;;
46637;SDS011;32365;46.938;7.390;2023-02-12T18:08:40;3.22;;;3.10;;
46637;SDS011;32365;46.938;7.390;2023-02-12T18:11:09;2.95;;;2.75;;
46637;SDS011;32365;46.938;7.390;2023-02-12T18:13:36;3.92;;;3.63;;
46637;SDS011;32365;46.938;7.390;2023-02-12T18:16:04;4.63;;;4.22;;
46637;SDS011;32365;46.938;7.390;2023-02-12T18:18:31;3.50;;;3.30;;
46637;SDS011;32365;46.938;7.390;2023-02-12T18:20:58;2.38;;;2.28;;
46637;SDS011;32365;46.938;7.390;2023-02-12T18:23:24;9.75;;;3.25;;
46637;SDS011;32365;46.938;7.390;2023-02-12T18:25:50;8.40;;;3.60;;
46637;SDS011;32365;46.938;7.390;2023-02-12T18:28:18;3.28;;;3.08;;
46637;SDS011;32365;46.938;7.390;2023-02-12T18:30:45;4.00;;;3.72;;
46637;SDS011;32365;46.938;7.390;2023-02-12T18:33:19;1.80;;;1.80;;
46637;SDS011;32365;46.938;7.390;2023-02-12T18:35:55;4.38;;;4.07;;
46637;SDS011;32365;46.938;7.390;2023-02-12T18:38:22;2.63;;;2.53;;
46637;SDS011;32365;46.938;7.390;2023-02-12T18:40:48;4.50;;;4.07;;
46637;SDS011;32365;46.938;7.390;2023-02-12T18:43:15;3.83;;;3.70;;
46637;SDS011;32365;46.938;7.390;2023-02-12T18:45:43;5.82;;;5.28;;
46637;SDS011;32365;46.938;7.390;2023-02-12T18:48:09;5.18;;;4.82;;
46637;SDS011;32365;46.938;7.390;2023-02-12T18:50:36;4.97;;;4.68;;
46637;SDS011;32365;46.938;7.390;2023-02-12T18:53:03;4.22;;;3.92;;
46637;SDS011;32365;46.938;7.390;2023-02-12T18:55:29;3.17;;;2.97;;
46637;SDS011;32365;46.938;7.390;2023-02-12T18:57:56;4.15;;;2.97;;
46637;SDS011;32365;46.938;7.390;2023-02-12T19:00:22;2.80;;;2.70;;
46637;SDS011;32365;46.938;7.390;2023-02-12T19:02:51;3.08;;;2.88;;
46637;SDS011;32365;46.938;7.390;2023-02-12T19:05:17;2.45;;;2.35;;
46637;SDS011;32365;46.938;7.390;2023-02-12T19:07:44;2.75;;;2.63;;
46637;SDS011;32365;46.938;7.390;2023-02-12T19:10:10;1.58;;;1.52;;
46637;SDS011;32365;46.938;7.390;2023-02-12T19:12:37;3.85;;;2.97;;
46637;SDS011;32365;46.938;7.390;2023-02-12T19:15:03;3.60;;;3.47;;
46637;SDS011;32365;46.938;7.390;2023-02-12T19:17:32;2.83;;;2.72;;
46637;SDS011;32365;46.938;7.390;2023-02-12T19:20:00;3.13;;;2.95;;
46637;SDS011;32365;46.938;7.390;2023-02-12T19:22:27;2.90;;;2.70;;
46637;SDS011;32365;46.938;7.390;2023-02-12T19:24:54;3.28;;;3.08;;
46637;SDS011;32365;46.938;7.390;2023-02-12T19:27:20;2.53;;;2.42;;
46637;SDS011;32365;46.938;7.390;2023-02-12T19:29:47;3.08;;;2.88;;
46637;SDS011;32365;46.938;7.390;2023-02-12T19:32:13;3.90;;;3.65;;
46637;SDS011;32365;46.938;7.390;2023-02-12T19:34:40;4.68;;;4.30;;
46637;SDS011;32365;46.938;7.390;2023-02-12T19:37:08;3.15;;;3.05;;
46637;SDS011;32365;46.938;7.390;2023-02-12T19:39:36;2.08;;;2.08;;
46637;SDS011;32365;46.938;7.390;2023-02-12T19:42:03;3.55;;;2.78;;
46637;SDS011;32365;46.938;7.390;2023-02-12T19:44:30;2.58;;;2.38;;
46637;SDS011;32365;46.938;7.390;2023-02-12T19:46:56;4.55;;;3.17;;
46637;SDS011;32365;46.938;7.390;2023-02-12T19:49:24;2.38;;;2.30;;
46637;SDS011;32365;46.938;7.390;2023-02-12T19:51:52;2.88;;;2.78;;
46637;SDS011;32365;46.938;7.390;2023-02-12T19:54:21;3.00;;;2.88;;
46637;SDS011;32365;46.938;7.390;2023-02-12T19:56:50;3.92;;;3.45;;
46637;SDS011;32365;46.938;7.390;2023-02-12T19:59:17;2.42;;;2.33;;
46637;SDS011;32365;46.938;7.390;2023-02-12T20:01:45;2.75;;;2.60;;
46637;SDS011;32365;46.938;7.390;2023-02-12T20:04:14;4.50;;;4.30;;
46637;SDS011;32365;46.938;7.390;2023-02-12T20:06:42;4.97;;;4.55;;
46637;SDS011;32365;46.938;7.390;2023-02-12T20:09:10;3.15;;;3.00;;
46637;SDS011;32365;46.938;7.390;2023-02-12T20:11:38;3.95;;;3.65;;
46637;SDS011;32365;46.938;7.390;2023-02-12T20:14:05;6.68;;;4.32;;
46637;SDS011;32365;46.938;7.390;2023-02-12T20:16:33;2.83;;;2.72;;
46637;SDS011;32365;46.938;7.390;2023-02-12T20:19:03;2.92;;;2.80;;
46637;SDS011;32365;46.938;7.390;2023-02-12T20:21:30;4.45;;;4.15;;
46637;SDS011;32365;46.938;7.390;2023-02-12T20:23:57;7.82;;;7.07;;
46637;SDS011;32365;46.938;7.390;2023-02-12T20:26:26;2.28;;;2.17;;
46637;SDS011;32365;46.938;7.390;2023-02-12T20:28:54;2.78;;;2.67;;
46637;SDS011;32365;46.938;7.390;2023-02-12T20:31:22;2.40;;;2.30;;
46637;SDS011;32365;46.938;7.390;2023-02-12T20:33:52;4.40;;;3.97;;
46637;SDS011;32365;46.938;7.390;2023-02-12T20:36:19;3.45;;;3.33;;
46637;SDS011;32365;46.938;7.390;2023-02-12T20:38:49;5.18;;;3.15;;
46637;SDS011;32365;46.938;7.390;2023-02-12T20:41:16;2.97;;;2.88;;
46637;SDS011;32365;46.938;7.390;2023-02-12T20:43:43;2.50;;;2.40;;
46637;SDS011;32365;46.938;7.390;2023-02-12T20:46:11;2.55;;;2.45;;
46637;SDS011;32365;46.938;7.390;2023-02-12T20:48:40;3.38;;;3.05;;
46637;SDS011;32365;46.938;7.390;2023-02-12T20:51:07;2.42;;;2.33;;
46637;SDS011;32365;46.938;7.390;2023-02-12T20:53:35;2.67;;;2.58;;
46637;SDS011;32365;46.938;7.390;2023-02-12T20:56:03;4.35;;;4.15;;
